Terminal Aerodrome Forecast
Issued by NWS Cleveland, OH

Home | Current Version | Previous Version | Text Only | Print | Product List | Glossary On
Versions: 1 2 3 4 5 6 7 8 9 10 11 12 13 14 15 16 17 18 19 20
996
FTUS41 KCLE 130338 AAB
TAFYNG
TAF AMD
KYNG 130338Z 1304/1324 30012KT 3SM -SHSN BKN035
      TEMPO 1304/1307 32012G20KT 3/4SM -SHSN BKN015
     FM130900 30012G22KT P6SM VCSH BKN025
     FM131400 30015G22KT 3SM -SHSN OVC025
     FM132100 30012KT P6SM BKN035=

USA.gov is the U.S. government's official web portal to all federal, state and local government web resources and services.